Time;durP1;ratioP1;P1;durP2;ratioP2;P2;SDS_P1;SDS_P2;PMS_P1;PMS_P2;Temp;Humidity;BMP_temperature;BMP_pressure;BME280_temperature;BME280_humidity;BME280_pressure;Samples;Min_cycle;Max_cycle;Signal;HPM_P1;HPM_P2
2022/04/05 00:02:28;;;;;;;4.75;4.35;;;;;;;;;;12270833;28;20051;-77
2022/04/05 00:08:30;;;;;;;4.43;4.05;;;;;;;;;;12304501;28;20362;-77
2022/04/05 00:14:31;;;;;;;5.72;5.22;;;;;;;;;;12303821;28;20397;-77
2022/04/05 00:20:34;;;;;;;5.82;5.38;;;;;;;;;;12302980;28;20039;-76
2022/04/05 00:26:35;;;;;;;4.82;4.35;;;;;;;;;;12303060;28;20047;-77
2022/04/05 00:32:38;;;;;;;5.10;4.70;;;;;;;;;;12286449;28;20032;-77
2022/04/05 00:38:40;;;;;;;4.78;4.38;;;;;;;;;;12302634;28;20405;-76
2022/04/05 00:44:41;;;;;;;5.20;4.80;;;;;;;;;;12285133;28;20046;-77
2022/04/05 00:50:43;;;;;;;5.70;5.28;;;;;;;;;;12294634;28;20047;-77
2022/04/05 00:56:45;;;;;;;5.85;5.40;;;;;;;;;;12306088;28;20042;-77
2022/04/05 01:02:50;;;;;;;6.72;6.22;;;;;;;;;;12301720;28;20058;-77
2022/04/05 01:08:53;;;;;;;6.10;5.50;;;;;;;;;;12301114;28;20027;-77
2022/04/05 01:14:55;;;;;;;5.40;5.00;;;;;;;;;;12284521;28;20473;-77
2022/04/05 01:20:56;;;;;;;5.30;4.95;;;;;;;;;;12281951;28;20102;-77
2022/04/05 01:26:58;;;;;;;6.07;5.57;;;;;;;;;;12298634;28;20120;-77
2022/04/05 01:33:00;;;;;;;6.13;5.72;;;;;;;;;;12308767;28;20050;-77
2022/04/05 01:39:02;;;;;;;5.97;5.57;;;;;;;;;;12314212;28;20374;-77
2022/04/05 01:45:04;;;;;;;5.95;5.53;;;;;;;;;;12318113;28;20054;-77
2022/04/05 01:51:06;;;;;;;5.95;5.53;;;;;;;;;;12304829;28;20035;-77
2022/04/05 01:57:08;;;;;;;5.85;5.45;;;;;;;;;;12296579;28;20397;-75
2022/04/05 02:03:10;;;;;;;6.53;6.03;;;;;;;;;;12280783;28;20341;-76
2022/04/05 02:09:14;;;;;;;6.88;6.38;;;;;;;;;;12296644;28;20382;-76
2022/04/05 02:15:16;;;;;;;6.85;6.25;;;;;;;;;;12296208;28;20042;-77
2022/04/05 02:21:27;;;;;;;7.15;6.45;;;;;;;;;;12295484;28;20055;-76
2022/04/05 02:27:30;;;;;;;7.65;7.05;;;;;;;;;;12296338;28;20062;-78
2022/04/05 02:33:33;;;;;;;6.70;6.20;;;;;;;;;;12295565;29;20497;-78
2022/04/05 02:39:40;;;;;;;6.60;6.10;;;;;;;;;;12292337;28;20054;-78
2022/04/05 02:45:42;;;;;;;6.72;6.22;;;;;;;;;;12288285;28;20058;-75
2022/04/05 02:51:46;;;;;;;6.45;5.95;;;;;;;;;;12287778;28;20039;-76
2022/04/05 02:57:54;;;;;;;5.82;5.32;;;;;;;;;;12304456;28;20404;-76
2022/04/05 03:04:05;;;;;;;7.00;6.40;;;;;;;;;;12286525;29;20504;-77
2022/04/05 03:10:10;;;;;;;6.65;6.15;;;;;;;;;;12286138;28;20047;-77
2022/04/05 03:16:14;;;;;;;9.55;8.77;;;;;;;;;;12298068;28;20374;-77
2022/04/05 03:22:16;;;;;;;9.83;9.03;;;;;;;;;;12285146;28;20421;-77
2022/04/05 03:28:20;;;;;;;9.60;8.87;;;;;;;;;;12285039;29;20035;-77
2022/04/05 03:34:23;;;;;;;7.53;6.93;;;;;;;;;;12285900;28;20405;-77
2022/04/05 03:40:26;;;;;;;9.57;8.77;;;;;;;;;;12285729;28;20563;-77
2022/04/05 03:46:30;;;;;;;10.13;9.27;;;;;;;;;;12269881;28;20511;-77
2022/04/05 03:52:31;;;;;;;8.25;6.97;;;;;;;;;;12297231;28;20054;-77
2022/04/05 03:58:34;;;;;;;9.02;7.97;;;;;;;;;;12285040;29;20043;-77
2022/04/05 04:04:38;;;;;;;6.68;6.18;;;;;;;;;;12284321;28;20051;-77
2022/04/05 04:10:41;;;;;;;6.72;6.22;;;;;;;;;;12284728;28;20039;-77
2022/04/05 04:16:44;;;;;;;9.63;8.82;;;;;;;;;;12284736;28;20050;-76
2022/04/05 04:22:45;;;;;;;8.73;8.02;;;;;;;;;;12301956;28;20370;-76
2022/04/05 04:29:02;;;;;;;8.32;7.72;;;;;;;;;;12286388;29;20038;-76
2022/04/05 04:35:04;;;;;;;10.15;9.43;;;;;;;;;;12277121;28;20493;-76
2022/04/05 04:41:06;;;;;;;8.50;7.80;;;;;;;;;;12286720;28;20062;-77
2022/04/05 04:47:08;;;;;;;7.85;7.25;;;;;;;;;;12285357;28;20054;-76
2022/04/05 04:53:09;;;;;;;7.15;6.65;;;;;;;;;;12285008;28;20378;-76
2022/04/05 04:59:11;;;;;;;7.20;6.60;;;;;;;;;;12301889;28;20349;-77
2022/04/05 05:05:14;;;;;;;6.68;6.28;;;;;;;;;;12284886;28;20051;-79
2022/04/05 05:11:16;;;;;;;8.23;7.63;;;;;;;;;;12284150;28;20031;-77
2022/04/05 05:17:18;;;;;;;8.63;7.93;;;;;;;;;;12268007;28;20039;-77
2022/04/05 05:23:20;;;;;;;7.55;7.05;;;;;;;;;;12301828;28;20381;-77
2022/04/05 05:29:21;;;;;;;7.63;7.05;;;;;;;;;;12283702;28;20515;-77
2022/04/05 05:35:23;;;;;;;9.57;8.88;;;;;;;;;;12291283;28;20050;-77
2022/04/05 05:41:25;;;;;;;8.48;7.85;;;;;;;;;;12293905;28;20055;-77
2022/04/05 05:47:26;;;;;;;11.88;11.00;;;;;;;;;;12269545;29;20031;-77
2022/04/05 05:53:28;;;;;;;10.20;9.45;;;;;;;;;;12266779;28;20035;-79
2022/04/05 05:59:30;;;;;;;10.07;9.32;;;;;;;;;;12299672;28;20074;-78
2022/04/05 06:05:32;;;;;;;10.38;9.57;;;;;;;;;;12266300;28;20499;-78
2022/04/05 06:11:33;;;;;;;9.65;8.88;;;;;;;;;;12250356;28;20058;-79
2022/04/05 06:17:39;;;;;;;9.50;8.88;;;;;;;;;;12279991;28;20031;-77
2022/04/05 06:23:41;;;;;;;10.85;9.95;;;;;;;;;;12298224;28;20051;-78
2022/04/05 06:29:42;;;;;;;8.85;8.15;;;;;;;;;;12286511;28;20047;-78
2022/04/05 06:35:46;;;;;;;12.95;11.93;;;;;;;;;;12276191;28;20028;-78
2022/04/05 06:41:47;;;;;;;;;;;;;;;;;;12271602;28;20405;-77
2022/04/05 06:47:51;;;;;;;12.00;11.00;;;;;;;;;;12279389;28;20407;-78
2022/04/05 06:53:52;;;;;;;12.93;11.73;;;;;;;;;;12279018;28;20038;-78
2022/04/05 06:59:54;;;;;;;10.70;9.80;;;;;;;;;;12284879;28;20393;-77
2022/04/05 07:05:57;;;;;;;12.75;11.70;;;;;;;;;;12277491;28;20054;-75
2022/04/05 07:11:59;;;;;;;13.13;11.88;;;;;;;;;;12274369;28;20055;-76
2022/04/05 07:18:01;;;;;;;12.40;11.30;;;;;;;;;;12273218;28;20395;-76
2022/04/05 07:24:03;;;;;;;11.30;10.40;;;;;;;;;;12290675;28;20043;-78
2022/04/05 07:30:05;;;;;;;11.68;10.68;;;;;;;;;;12293564;28;20023;-77
2022/04/05 07:36:06;;;;;;;13.30;12.15;;;;;;;;;;12273177;28;20035;-78
2022/04/05 07:42:08;;;;;;;12.82;11.70;;;;;;;;;;12287634;28;20070;-78
2022/04/05 07:48:11;;;;;;;12.93;11.82;;;;;;;;;;12272803;28;20039;-77
2022/04/05 07:54:13;;;;;;;12.77;11.67;;;;;;;;;;12292562;28;20465;-78
2022/04/05 08:00:15;;;;;;;16.13;14.80;;;;;;;;;;12309134;28;20036;-78
2022/04/05 08:06:16;;;;;;;11.83;10.77;;;;;;;;;;12294769;28;20051;-76
2022/04/05 08:12:18;;;;;;;15.75;14.25;;;;;;;;;;12284654;28;20035;-77
2022/04/05 08:18:21;;;;;;;14.80;13.10;;;;;;;;;;12283928;28;20031;-77
2022/04/05 08:24:23;;;;;;;12.63;11.50;;;;;;;;;;12289063;28;20039;-75
2022/04/05 08:30:25;;;;;;;14.50;13.15;;;;;;;;;;12285478;28;20388;-79
2022/04/05 08:36:28;;;;;;;15.80;14.07;;;;;;;;;;12295530;28;20058;-81
2022/04/05 08:42:29;;;;;;;12.57;11.48;;;;;;;;;;12233860;29;20802;-76
2022/04/05 08:48:31;;;;;;;11.35;10.35;;;;;;;;;;12233140;29;20531;-77
2022/04/05 08:54:33;;;;;;;14.87;13.53;;;;;;;;;;12237758;29;20423;-78
2022/04/05 09:00:35;;;;;;;14.80;13.45;;;;;;;;;;12237032;29;20322;-77
2022/04/05 09:06:37;;;;;;;15.10;13.77;;;;;;;;;;12248243;29;20396;-77
2022/04/05 09:12:43;;;;;;;14.65;13.13;;;;;;;;;;12216185;29;20036;-77
2022/04/05 09:18:45;;;;;;;13.15;12.00;;;;;;;;;;12234562;29;20060;-77
2022/04/05 09:24:47;;;;;;;14.47;12.50;;;;;;;;;;12227297;28;20059;-77
2022/04/05 09:30:51;;;;;;;15.77;14.38;;;;;;;;;;12243072;29;20027;-78
2022/04/05 09:37:08;;;;;;;14.27;12.98;;;;;;;;;;12249129;29;20509;-78
2022/04/05 09:43:17;;;;;;;18.08;16.30;;;;;;;;;;12265166;28;20393;-79
2022/04/05 09:49:30;;;;;;;17.73;15.90;;;;;;;;;;12288557;28;20468;-79
2022/04/05 09:55:32;;;;;;;24.77;22.17;;;;;;;;;;12293648;28;20058;-77
2022/04/05 10:01:34;;;;;;;20.33;18.23;;;;;;;;;;12273623;28;20297;-77
2022/04/05 10:07:36;;;;;;;;;;;;;;;;;;12276322;28;20488;-78
2022/04/05 10:13:38;;;;;;;16.98;15.38;;;;;;;;;;12275101;28;19921;-79
2022/04/05 10:19:43;;;;;;;16.55;14.90;;;;;;;;;;12280445;28;20043;-79
2022/04/05 10:25:47;;;;;;;16.30;14.60;;;;;;;;;;12268127;28;20050;-80
2022/04/05 10:32:05;;;;;;;16.98;15.25;;;;;;;;;;12276916;28;20027;-80
2022/04/05 10:38:14;;;;;;;20.23;18.30;;;;;;;;;;12270830;28;20056;-79
2022/04/05 10:44:19;;;;;;;13.65;12.25;;;;;;;;;;12258921;28;20401;-78
2022/04/05 10:50:21;;;;;;;15.82;14.20;;;;;;;;;;12269261;28;20038;-78
2022/04/05 10:56:23;;;;;;;18.93;17.17;;;;;;;;;;12258659;28;20035;-78
2022/04/05 11:02:43;;;;;;;14.70;13.27;;;;;;;;;;12262057;28;20050;-78
2022/04/05 11:08:45;;;;;;;13.32;12.02;;;;;;;;;;12245971;28;20459;-76
2022/04/05 11:14:51;;;;;;;15.77;14.30;;;;;;;;;;12284498;28;20060;-78
2022/04/05 11:20:54;;;;;;;15.18;13.80;;;;;;;;;;12291313;28;20401;-79
2022/04/05 11:26:56;;;;;;;;;;;;;;;;;;12270712;29;20043;-74
2022/04/05 11:33:09;;;;;;;12.25;10.95;;;;;;;;;;12307080;29;19914;-76
2022/04/05 11:39:13;;;;;;;22.13;19.88;;;;;;;;;;12292762;29;20051;-76
2022/04/05 11:45:15;;;;;;;13.88;12.63;;;;;;;;;;12301781;29;20043;-76
2022/04/05 11:51:19;;;;;;;14.03;12.73;;;;;;;;;;12285247;29;20030;-77
2022/04/05 11:57:21;;;;;;;18.77;16.90;;;;;;;;;;12301935;29;20488;-76
2022/04/05 12:03:22;;;;;;;16.65;15.05;;;;;;;;;;12302149;29;20051;-76
2022/04/05 12:09:24;;;;;;;16.27;14.68;;;;;;;;;;12283330;29;20043;-76
2022/04/05 12:15:26;;;;;;;13.20;12.00;;;;;;;;;;12299820;28;20062;-76
2022/04/05 12:21:28;;;;;;;10.47;9.47;;;;;;;;;;12313074;28;20040;-79
2022/04/05 12:27:31;;;;;;;13.10;11.90;;;;;;;;;;12282574;29;20491;-77
2022/04/05 12:33:34;;;;;;;16.05;14.50;;;;;;;;;;12299660;29;20526;-77
2022/04/05 12:39:43;;;;;;;13.15;11.85;;;;;;;;;;12281896;28;20055;-77
2022/04/05 12:45:45;;;;;;;9.52;8.63;;;;;;;;;;12282652;28;20046;-77
2022/04/05 12:51:47;;;;;;;7.93;7.23;;;;;;;;;;12311260;28;20062;-77
2022/04/05 12:57:50;;;;;;;12.35;11.30;;;;;;;;;;12282121;28;20039;-77
2022/04/05 13:03:58;;;;;;;13.77;12.60;;;;;;;;;;12268386;29;20055;-76
2022/04/05 13:10:00;;;;;;;13.43;12.20;;;;;;;;;;12284322;28;20039;-76
2022/04/05 13:16:01;;;;;;;19.67;17.87;;;;;;;;;;12284381;28;20515;-76
2022/04/05 13:22:12;;;;;;;10.32;9.45;;;;;;;;;;12300828;28;20035;-76
2022/04/05 13:28:14;;;;;;;11.82;10.77;;;;;;;;;;12300813;28;20039;-76
2022/04/05 13:34:16;;;;;;;10.40;9.43;;;;;;;;;;12300883;28;20051;-76
2022/04/05 13:40:18;;;;;;;10.13;9.13;;;;;;;;;;12300561;28;20413;-76
2022/04/05 13:46:19;;;;;;;12.93;11.73;;;;;;;;;;12300321;28;20043;-77
2022/04/05 13:52:23;;;;;;;17.97;16.37;;;;;;;;;;12300040;28;20043;-77
2022/04/05 13:58:24;;;;;;;9.75;8.95;;;;;;;;;;12311182;28;20046;-77
2022/04/05 14:04:26;;;;;;;7.77;7.07;;;;;;;;;;12279624;28;20489;-77
2022/04/05 14:10:28;;;;;;;5.73;5.27;;;;;;;;;;12279916;28;20039;-77
2022/04/05 14:16:30;;;;;;;10.52;9.57;;;;;;;;;;12279256;28;20393;-77
2022/04/05 14:22:32;;;;;;;13.47;12.23;;;;;;;;;;12309964;28;20544;-77
2022/04/05 14:28:34;;;;;;;;;;;;;;;;;;12280160;29;20306;-77
2022/04/05 14:34:36;;;;;;;13.85;12.48;;;;;;;;;;12279581;28;19918;-77
2022/04/05 14:40:37;;;;;;;10.50;9.50;;;;;;;;;;12301689;28;20055;-77
2022/04/05 14:46:40;;;;;;;14.52;13.13;;;;;;;;;;12287969;28;20040;-77
2022/04/05 14:52:42;;;;;;;16.30;14.82;;;;;;;;;;12303957;28;20191;-77
2022/04/05 14:58:43;;;;;;;9.03;8.23;;;;;;;;;;12304395;28;20036;-77
2022/04/05 15:04:45;;;;;;;9.97;9.07;;;;;;;;;;12304982;28;20491;-77
2022/04/05 15:10:47;;;;;;;8.23;7.53;;;;;;;;;;12304168;28;20050;-77
2022/04/05 15:16:50;;;;;;;10.20;9.30;;;;;;;;;;12286577;28;20497;-77
2022/04/05 15:22:52;;;;;;;10.60;9.50;;;;;;;;;;12302916;28;20043;-77
2022/04/05 15:28:53;;;;;;;12.27;11.07;;;;;;;;;;12296760;29;20039;-77
2022/04/05 15:34:55;;;;;;;15.20;13.83;;;;;;;;;;12286702;28;20044;-77
2022/04/05 15:40:57;;;;;;;14.93;13.50;;;;;;;;;;12302591;28;20417;-77
2022/04/05 15:46:59;;;;;;;13.87;12.50;;;;;;;;;;12268718;28;20059;-77
2022/04/05 15:53:02;;;;;;;17.83;16.13;;;;;;;;;;12285865;28;20551;-77
2022/04/05 15:59:04;;;;;;;11.85;10.68;;;;;;;;;;12295363;29;20043;-77
2022/04/05 16:05:06;;;;;;;13.53;12.23;;;;;;;;;;12284278;28;20054;-76
2022/04/05 16:11:08;;;;;;;18.58;16.77;;;;;;;;;;12283055;28;20507;-74
2022/04/05 16:17:09;;;;;;;15.00;13.57;;;;;;;;;;12284242;28;20035;-76
2022/04/05 16:23:12;;;;;;;22.93;20.50;;;;;;;;;;12283709;28;20043;-77
2022/04/05 16:29:14;;;;;;;17.58;15.82;;;;;;;;;;12298437;28;20526;-75
2022/04/05 16:35:16;;;;;;;12.98;11.52;;;;;;;;;;12300946;28;20062;-77
2022/04/05 16:41:17;;;;;;;16.87;15.17;;;;;;;;;;12300146;28;20492;-77
2022/04/05 16:47:19;;;;;;;12.30;9.53;;;;;;;;;;12300123;28;20147;-78
2022/04/05 16:53:21;;;;;;;15.18;13.68;;;;;;;;;;12299380;28;20366;-77
2022/04/05 16:59:23;;;;;;;10.97;9.97;;;;;;;;;;12298071;28;20043;-76
2022/04/05 17:05:24;;;;;;;8.77;7.70;;;;;;;;;;12282047;28;20047;-76
2022/04/05 17:11:28;;;;;;;11.30;10.20;;;;;;;;;;12282422;28;20066;-78
2022/04/05 17:17:30;;;;;;;11.70;10.60;;;;;;;;;;12284213;28;20039;-75
2022/04/05 17:23:32;;;;;;;11.73;10.63;;;;;;;;;;12283914;29;20043;-76
2022/04/05 17:29:34;;;;;;;12.53;11.33;;;;;;;;;;12301651;28;20038;-77
2022/04/05 17:35:36;;;;;;;19.20;17.10;;;;;;;;;;12283466;28;20050;-76
2022/04/05 17:41:38;;;;;;;11.45;10.38;;;;;;;;;;12281119;28;20047;-76
2022/04/05 17:47:40;;;;;;;14.73;13.20;;;;;;;;;;12298663;28;20039;-77
2022/04/05 17:53:42;;;;;;;13.63;12.40;;;;;;;;;;12298831;28;20062;-75
2022/04/05 17:59:47;;;;;;;9.48;8.60;;;;;;;;;;12297671;28;20035;-76
2022/04/05 18:05:49;;;;;;;9.40;8.60;;;;;;;;;;12298336;28;20051;-76
2022/04/05 18:11:51;;;;;;;10.15;9.27;;;;;;;;;;12299356;28;20031;-76
2022/04/05 18:17:53;;;;;;;9.97;9.03;;;;;;;;;;12306369;28;20058;-78
2022/04/05 18:23:55;;;;;;;8.75;7.95;;;;;;;;;;12318609;28;20062;-76
2022/04/05 18:29:56;;;;;;;10.00;9.00;;;;;;;;;;12307958;28;20027;-76
2022/04/05 18:35:58;;;;;;;8.90;8.20;;;;;;;;;;12306510;28;20047;-76
2022/04/05 18:42:00;;;;;;;7.20;6.57;;;;;;;;;;12310413;28;20054;-76
2022/04/05 18:48:02;;;;;;;8.15;7.35;;;;;;;;;;12312690;28;20389;-76
2022/04/05 18:54:03;;;;;;;9.80;7.10;;;;;;;;;;12305194;28;20039;-76
2022/04/05 19:00:06;;;;;;;6.63;6.10;;;;;;;;;;12304778;28;20040;-77
2022/04/05 19:06:08;;;;;;;7.97;6.90;;;;;;;;;;12274449;28;20047;-76
2022/04/05 19:12:10;;;;;;;8.32;7.40;;;;;;;;;;12306717;28;20046;-76
2022/04/05 19:18:12;;;;;;;8.13;7.32;;;;;;;;;;12273515;29;20042;-76
2022/04/05 19:24:14;;;;;;;7.28;6.57;;;;;;;;;;12305748;28;20051;-76
2022/04/05 19:30:15;;;;;;;8.45;7.78;;;;;;;;;;12288535;28;20396;-76
2022/04/05 19:36:17;;;;;;;8.75;7.90;;;;;;;;;;12288333;28;20028;-76
2022/04/05 19:42:19;;;;;;;12.07;10.98;;;;;;;;;;12288541;28;20058;-76
2022/04/05 19:48:21;;;;;;;5.78;5.30;;;;;;;;;;12288133;29;20043;-76
2022/04/05 19:54:23;;;;;;;7.50;6.80;;;;;;;;;;12300508;28;20032;-76
2022/04/05 20:00:25;;;;;;;8.97;8.20;;;;;;;;;;12283171;28;20047;-76
2022/04/05 20:06:27;;;;;;;8.07;7.35;;;;;;;;;;12280016;28;20294;-75
2022/04/05 20:12:29;;;;;;;8.85;7.95;;;;;;;;;;12299790;28;20040;-76
2022/04/05 20:18:41;;;;;;;8.18;7.35;;;;;;;;;;12266689;29;20039;-75
2022/04/05 20:24:45;;;;;;;7.00;6.40;;;;;;;;;;12299431;28;20039;-76
2022/04/05 20:30:46;;;;;;;9.82;9.02;;;;;;;;;;12299249;28;20034;-76
2022/04/05 20:36:48;;;;;;;9.75;8.80;;;;;;;;;;12299886;28;20038;-76
2022/04/05 20:42:50;;;;;;;9.43;8.63;;;;;;;;;;12299246;28;20047;-76
2022/04/05 20:48:52;;;;;;;9.13;8.32;;;;;;;;;;12281269;29;20501;-76
2022/04/05 20:54:54;;;;;;;12.20;11.20;;;;;;;;;;12265406;28;20035;-76
2022/04/05 21:00:57;;;;;;;12.52;11.43;;;;;;;;;;12290845;28;20047;-76
2022/04/05 21:06:59;;;;;;;15.27;13.77;;;;;;;;;;12298662;28;20043;-76
2022/04/05 21:13:01;;;;;;;14.02;12.60;;;;;;;;;;12298547;28;20034;-76
2022/04/05 21:19:02;;;;;;;14.57;13.33;;;;;;;;;;12292363;28;20036;-76
2022/04/05 21:25:05;;;;;;;18.55;16.85;;;;;;;;;;12279913;28;20078;-76
2022/04/05 21:31:07;;;;;;;17.70;15.93;;;;;;;;;;12297996;28;20038;-76
2022/04/05 21:37:10;;;;;;;18.35;16.58;;;;;;;;;;12280592;28;20042;-76
2022/04/05 21:43:12;;;;;;;17.52;15.82;;;;;;;;;;12279802;29;20046;-77
2022/04/05 21:49:14;;;;;;;17.52;15.93;;;;;;;;;;12302526;28;20039;-76
2022/04/05 21:55:16;;;;;;;21.50;19.40;;;;;;;;;;12307774;28;20035;-76
2022/04/05 22:01:17;;;;;;;18.83;17.02;;;;;;;;;;12308312;28;20038;-76
2022/04/05 22:07:19;;;;;;;21.55;19.58;;;;;;;;;;12308313;28;20082;-76
2022/04/05 22:13:21;;;;;;;21.92;19.85;;;;;;;;;;12307076;28;20027;-77
2022/04/05 22:19:23;;;;;;;19.10;17.40;;;;;;;;;;12306807;28;20042;-77
2022/04/05 22:25:25;;;;;;;19.05;17.35;;;;;;;;;;12289539;28;20421;-77
2022/04/05 22:31:27;;;;;;;18.90;16.90;;;;;;;;;;12317814;28;20039;-77
2022/04/05 22:37:29;;;;;;;15.25;13.85;;;;;;;;;;12289447;28;20070;-76
2022/04/05 22:43:31;;;;;;;15.52;14.13;;;;;;;;;;12288521;29;20043;-76
2022/04/05 22:49:33;;;;;;;17.73;16.20;;;;;;;;;;12289115;28;20038;-76
2022/04/05 22:55:35;;;;;;;17.70;16.02;;;;;;;;;;12288128;28;20497;-76
2022/04/05 23:01:37;;;;;;;13.75;12.55;;;;;;;;;;12286317;28;20031;-76
2022/04/05 23:07:39;;;;;;;14.85;13.65;;;;;;;;;;12306230;28;20039;-77
2022/04/05 23:13:40;;;;;;;17.33;15.68;;;;;;;;;;12286557;29;20034;-77
2022/04/05 23:19:43;;;;;;;14.05;12.85;;;;;;;;;;12283063;28;20039;-77
2022/04/05 23:25:44;;;;;;;15.93;14.40;;;;;;;;;;12303586;28;20043;-77
2022/04/05 23:38:06;;;;;;;13.32;12.20;;;;;;;;;;12285345;28;20063;-77
2022/04/05 23:44:08;;;;;;;15.20;13.80;;;;;;;;;;12301559;28;20058;-77
2022/04/05 23:50:09;;;;;;;13.80;12.57;;;;;;;;;;12301619;28;20038;-77
2022/04/05 23:56:11;;;;;;;15.70;14.32;;;;;;;;;;12290500;28;20015;-77
